sensor_id;sensor_type;location;lat;lon;timestamp;P1;durP1;ratioP1;P2;durP2;ratioP2
39740;SDS011;25426;53.478;10.190;2022-10-31T00:01:55;25.95;;;21.92;;
39740;SDS011;25426;53.478;10.190;2022-10-31T00:04:25;28.17;;;21.80;;
39740;SDS011;25426;53.478;10.190;2022-10-31T00:06:56;24.20;;;21.10;;
39740;SDS011;25426;53.478;10.190;2022-10-31T00:09:27;23.75;;;21.23;;
39740;SDS011;25426;53.478;10.190;2022-10-31T00:11:58;24.38;;;20.27;;
39740;SDS011;25426;53.478;10.190;2022-10-31T00:14:29;22.52;;;19.02;;
39740;SDS011;25426;53.478;10.190;2022-10-31T00:17:00;25.33;;;20.63;;
39740;SDS011;25426;53.478;10.190;2022-10-31T00:19:31;23.83;;;21.33;;
39740;SDS011;25426;53.478;10.190;2022-10-31T00:22:02;25.08;;;22.00;;
39740;SDS011;25426;53.478;10.190;2022-10-31T00:24:33;30.60;;;21.50;;
39740;SDS011;25426;53.478;10.190;2022-10-31T00:27:04;26.88;;;21.00;;
39740;SDS011;25426;53.478;10.190;2022-10-31T00:29:35;25.23;;;21.30;;
39740;SDS011;25426;53.478;10.190;2022-10-31T00:32:06;21.08;;;18.85;;
39740;SDS011;25426;53.478;10.190;2022-10-31T00:34:37;22.55;;;20.08;;
39740;SDS011;25426;53.478;10.190;2022-10-31T00:37:08;19.63;;;17.63;;
39740;SDS011;25426;53.478;10.190;2022-10-31T00:39:39;20.30;;;17.63;;
39740;SDS011;25426;53.478;10.190;2022-10-31T00:42:10;19.98;;;17.85;;
39740;SDS011;25426;53.478;10.190;2022-10-31T00:44:46;23.08;;;18.55;;
39740;SDS011;25426;53.478;10.190;2022-10-31T00:47:17;19.40;;;17.20;;
39740;SDS011;25426;53.478;10.190;2022-10-31T00:49:49;18.88;;;16.85;;
39740;SDS011;25426;53.478;10.190;2022-10-31T00:52:20;18.92;;;16.70;;
39740;SDS011;25426;53.478;10.190;2022-10-31T00:54:51;18.52;;;16.60;;
39740;SDS011;25426;53.478;10.190;2022-10-31T00:57:22;18.50;;;16.58;;
39740;SDS011;25426;53.478;10.190;2022-10-31T00:59:53;17.38;;;15.68;;
39740;SDS011;25426;53.478;10.190;2022-10-31T01:02:24;17.15;;;15.35;;
39740;SDS011;25426;53.478;10.190;2022-10-31T01:04:55;17.77;;;15.68;;
39740;SDS011;25426;53.478;10.190;2022-10-31T01:07:25;19.85;;;16.90;;
39740;SDS011;25426;53.478;10.190;2022-10-31T01:09:56;22.52;;;17.25;;
39740;SDS011;25426;53.478;10.190;2022-10-31T01:12:29;15.60;;;14.20;;
39740;SDS011;25426;53.478;10.190;2022-10-31T01:15:10;18.85;;;17.02;;
39740;SDS011;25426;53.478;10.190;2022-10-31T01:17:43;14.77;;;13.45;;
39740;SDS011;25426;53.478;10.190;2022-10-31T01:20:15;18.52;;;16.25;;
39740;SDS011;25426;53.478;10.190;2022-10-31T01:22:47;18.45;;;16.35;;
39740;SDS011;25426;53.478;10.190;2022-10-31T01:25:18;18.15;;;16.20;;
39740;SDS011;25426;53.478;10.190;2022-10-31T01:27:49;15.95;;;14.25;;
39740;SDS011;25426;53.478;10.190;2022-10-31T01:30:20;15.27;;;13.25;;
39740;SDS011;25426;53.478;10.190;2022-10-31T01:32:51;15.90;;;14.10;;
39740;SDS011;25426;53.478;10.190;2022-10-31T01:35:22;15.80;;;14.20;;
39740;SDS011;25426;53.478;10.190;2022-10-31T01:37:52;14.35;;;12.82;;
39740;SDS011;25426;53.478;10.190;2022-10-31T01:40:23;15.27;;;13.77;;
39740;SDS011;25426;53.478;10.190;2022-10-31T01:43:00;16.58;;;14.90;;
39740;SDS011;25426;53.478;10.190;2022-10-31T01:45:31;15.85;;;14.23;;
39740;SDS011;25426;53.478;10.190;2022-10-31T01:48:02;15.40;;;13.80;;
39740;SDS011;25426;53.478;10.190;2022-10-31T01:50:34;18.85;;;16.92;;
39740;SDS011;25426;53.478;10.190;2022-10-31T01:53:06;18.23;;;15.60;;
39740;SDS011;25426;53.478;10.190;2022-10-31T01:55:39;17.30;;;14.73;;
39740;SDS011;25426;53.478;10.190;2022-10-31T01:58:13;18.13;;;15.77;;
39740;SDS011;25426;53.478;10.190;2022-10-31T02:00:54;20.17;;;17.13;;
39740;SDS011;25426;53.478;10.190;2022-10-31T02:03:29;18.70;;;15.32;;
39740;SDS011;25426;53.478;10.190;2022-10-31T02:06:00;16.20;;;14.50;;
39740;SDS011;25426;53.478;10.190;2022-10-31T02:08:33;20.83;;;15.60;;
39740;SDS011;25426;53.478;10.190;2022-10-31T02:11:04;25.27;;;18.33;;
39740;SDS011;25426;53.478;10.190;2022-10-31T02:13:36;15.45;;;13.80;;
39740;SDS011;25426;53.478;10.190;2022-10-31T02:16:12;23.20;;;16.85;;
39740;SDS011;25426;53.478;10.190;2022-10-31T02:18:43;21.10;;;17.27;;
39740;SDS011;25426;53.478;10.190;2022-10-31T02:21:23;21.83;;;18.98;;
39740;SDS011;25426;53.478;10.190;2022-10-31T02:24:33;19.50;;;16.98;;
39740;SDS011;25426;53.478;10.190;2022-10-31T02:37:38;18.23;;;15.13;;
39740;SDS011;25426;53.478;10.190;2022-10-31T02:40:22;16.42;;;14.70;;
39740;SDS011;25426;53.478;10.190;2022-10-31T02:43:54;21.38;;;16.50;;
39740;SDS011;25426;53.478;10.190;2022-10-31T02:46:45;19.27;;;16.95;;
39740;SDS011;25426;53.478;10.190;2022-10-31T02:52:32;21.52;;;17.42;;
39740;SDS011;25426;53.478;10.190;2022-10-31T02:58:02;21.33;;;16.33;;
39740;SDS011;25426;53.478;10.190;2022-10-31T03:07:11;17.95;;;16.08;;
39740;SDS011;25426;53.478;10.190;2022-10-31T03:10:42;20.15;;;15.52;;
39740;SDS011;25426;53.478;10.190;2022-10-31T03:13:34;15.73;;;14.10;;
39740;SDS011;25426;53.478;10.190;2022-10-31T03:16:39;17.65;;;15.68;;
39740;SDS011;25426;53.478;10.190;2022-10-31T03:19:31;15.80;;;13.75;;
39740;SDS011;25426;53.478;10.190;2022-10-31T03:24:54;14.10;;;12.40;;
39740;SDS011;25426;53.478;10.190;2022-10-31T03:27:26;14.80;;;12.57;;
39740;SDS011;25426;53.478;10.190;2022-10-31T03:30:03;14.90;;;13.10;;
39740;SDS011;25426;53.478;10.190;2022-10-31T03:32:49;19.35;;;14.52;;
39740;SDS011;25426;53.478;10.190;2022-10-31T03:35:25;18.50;;;14.10;;
39740;SDS011;25426;53.478;10.190;2022-10-31T03:37:57;18.73;;;14.50;;
39740;SDS011;25426;53.478;10.190;2022-10-31T03:40:30;16.08;;;13.43;;
39740;SDS011;25426;53.478;10.190;2022-10-31T03:43:07;13.43;;;12.13;;
39740;SDS011;25426;53.478;10.190;2022-10-31T03:45:47;14.48;;;12.70;;
39740;SDS011;25426;53.478;10.190;2022-10-31T03:48:18;16.23;;;14.10;;
39740;SDS011;25426;53.478;10.190;2022-10-31T03:50:58;14.85;;;12.77;;
39740;SDS011;25426;53.478;10.190;2022-10-31T03:53:46;14.50;;;13.00;;
39740;SDS011;25426;53.478;10.190;2022-10-31T03:56:33;18.70;;;14.18;;
39740;SDS011;25426;53.478;10.190;2022-10-31T03:59:11;17.63;;;12.93;;
39740;SDS011;25426;53.478;10.190;2022-10-31T04:01:53;15.50;;;13.65;;
39740;SDS011;25426;53.478;10.190;2022-10-31T04:04:29;16.88;;;14.52;;
39740;SDS011;25426;53.478;10.190;2022-10-31T04:07:00;17.45;;;15.02;;
39740;SDS011;25426;53.478;10.190;2022-10-31T04:09:33;15.18;;;13.20;;
39740;SDS011;25426;53.478;10.190;2022-10-31T04:12:07;17.67;;;15.15;;
39740;SDS011;25426;53.478;10.190;2022-10-31T04:15:08;18.55;;;14.73;;
39740;SDS011;25426;53.478;10.190;2022-10-31T04:17:43;17.65;;;14.40;;
39740;SDS011;25426;53.478;10.190;2022-10-31T04:20:16;19.27;;;14.45;;
39740;SDS011;25426;53.478;10.190;2022-10-31T04:22:47;28.95;;;16.38;;
39740;SDS011;25426;53.478;10.190;2022-10-31T04:25:18;23.35;;;15.95;;
39740;SDS011;25426;53.478;10.190;2022-10-31T04:27:49;17.35;;;13.93;;
39740;SDS011;25426;53.478;10.190;2022-10-31T04:30:20;25.50;;;16.15;;
39740;SDS011;25426;53.478;10.190;2022-10-31T04:32:52;22.35;;;14.85;;
39740;SDS011;25426;53.478;10.190;2022-10-31T04:35:23;23.42;;;14.45;;
39740;SDS011;25426;53.478;10.190;2022-10-31T04:37:56;43.42;;;21.35;;
39740;SDS011;25426;53.478;10.190;2022-10-31T04:40:27;29.50;;;19.50;;
39740;SDS011;25426;53.478;10.190;2022-10-31T04:43:18;26.77;;;16.75;;
39740;SDS011;25426;53.478;10.190;2022-10-31T04:45:49;29.80;;;18.80;;
39740;SDS011;25426;53.478;10.190;2022-10-31T04:48:20;29.75;;;19.25;;
39740;SDS011;25426;53.478;10.190;2022-10-31T04:50:51;24.10;;;15.45;;
39740;SDS011;25426;53.478;10.190;2022-10-31T04:53:22;28.85;;;17.83;;
39740;SDS011;25426;53.478;10.190;2022-10-31T04:56:12;31.25;;;18.02;;
39740;SDS011;25426;53.478;10.190;2022-10-31T04:58:47;38.47;;;20.90;;
39740;SDS011;25426;53.478;10.190;2022-10-31T05:01:18;36.33;;;19.25;;
39740;SDS011;25426;53.478;10.190;2022-10-31T05:03:49;39.63;;;20.83;;
39740;SDS011;25426;53.478;10.190;2022-10-31T05:06:20;35.67;;;19.30;;
39740;SDS011;25426;53.478;10.190;2022-10-31T05:08:51;34.50;;;19.77;;
39740;SDS011;25426;53.478;10.190;2022-10-31T05:11:24;27.98;;;20.00;;
39740;SDS011;25426;53.478;10.190;2022-10-31T05:13:56;41.53;;;21.52;;
39740;SDS011;25426;53.478;10.190;2022-10-31T05:16:59;39.38;;;21.90;;
39740;SDS011;25426;53.478;10.190;2022-10-31T05:19:50;42.30;;;22.05;;
39740;SDS011;25426;53.478;10.190;2022-10-31T05:22:42;51.60;;;24.00;;
39740;SDS011;25426;53.478;10.190;2022-10-31T05:25:18;50.15;;;24.70;;
39740;SDS011;25426;53.478;10.190;2022-10-31T05:27:54;69.50;;;29.15;;
39740;SDS011;25426;53.478;10.190;2022-10-31T05:30:27;51.55;;;25.67;;
39740;SDS011;25426;53.478;10.190;2022-10-31T05:33:01;60.42;;;28.42;;
39740;SDS011;25426;53.478;10.190;2022-10-31T05:35:51;69.43;;;26.60;;
39740;SDS011;25426;53.478;10.190;2022-10-31T05:38:40;67.32;;;28.77;;
39740;SDS011;25426;53.478;10.190;2022-10-31T05:41:25;52.05;;;26.73;;
39740;SDS011;25426;53.478;10.190;2022-10-31T05:44:04;53.90;;;26.73;;
39740;SDS011;25426;53.478;10.190;2022-10-31T05:46:42;55.03;;;27.08;;
39740;SDS011;25426;53.478;10.190;2022-10-31T05:49:32;42.47;;;22.55;;
39740;SDS011;25426;53.478;10.190;2022-10-31T05:52:21;54.50;;;25.95;;
39740;SDS011;25426;53.478;10.190;2022-10-31T05:55:01;54.45;;;26.98;;
39740;SDS011;25426;53.478;10.190;2022-10-31T05:57:33;53.50;;;27.77;;
39740;SDS011;25426;53.478;10.190;2022-10-31T06:00:04;51.03;;;26.65;;
39740;SDS011;25426;53.478;10.190;2022-10-31T06:03:01;54.25;;;27.50;;
39740;SDS011;25426;53.478;10.190;2022-10-31T06:05:50;48.58;;;25.13;;
39740;SDS011;25426;53.478;10.190;2022-10-31T06:08:21;47.80;;;24.90;;
39740;SDS011;25426;53.478;10.190;2022-10-31T06:10:53;52.35;;;26.50;;
39740;SDS011;25426;53.478;10.190;2022-10-31T06:13:32;57.08;;;26.98;;
39740;SDS011;25426;53.478;10.190;2022-10-31T06:16:10;43.75;;;25.33;;
39740;SDS011;25426;53.478;10.190;2022-10-31T06:18:42;53.97;;;26.67;;
39740;SDS011;25426;53.478;10.190;2022-10-31T06:21:13;50.50;;;26.38;;
39740;SDS011;25426;53.478;10.190;2022-10-31T06:23:44;44.60;;;26.23;;
39740;SDS011;25426;53.478;10.190;2022-10-31T06:26:41;45.65;;;26.67;;
39740;SDS011;25426;53.478;10.190;2022-10-31T06:29:12;47.03;;;27.73;;
39740;SDS011;25426;53.478;10.190;2022-10-31T06:31:59;58.90;;;27.45;;
39740;SDS011;25426;53.478;10.190;2022-10-31T06:34:31;53.67;;;27.13;;
39740;SDS011;25426;53.478;10.190;2022-10-31T06:37:02;63.38;;;28.52;;
39740;SDS011;25426;53.478;10.190;2022-10-31T06:39:34;62.83;;;28.65;;
39740;SDS011;25426;53.478;10.190;2022-10-31T06:42:06;67.85;;;31.45;;
39740;SDS011;25426;53.478;10.190;2022-10-31T06:44:37;91.57;;;36.58;;
39740;SDS011;25426;53.478;10.190;2022-10-31T06:47:27;119.13;;;41.90;;
39740;SDS011;25426;53.478;10.190;2022-10-31T06:50:21;110.95;;;41.90;;
39740;SDS011;25426;53.478;10.190;2022-10-31T06:52:53;158.82;;;45.50;;
39740;SDS011;25426;53.478;10.190;2022-10-31T06:55:26;194.55;;;46.40;;
39740;SDS011;25426;53.478;10.190;2022-10-31T06:57:59;88.55;;;41.03;;
39740;SDS011;25426;53.478;10.190;2022-10-31T07:00:31;148.43;;;46.78;;
39740;SDS011;25426;53.478;10.190;2022-10-31T07:03:11;209.48;;;49.25;;
39740;SDS011;25426;53.478;10.190;2022-10-31T07:05:45;160.70;;;47.47;;
39740;SDS011;25426;53.478;10.190;2022-10-31T07:08:16;177.50;;;48.75;;
39740;SDS011;25426;53.478;10.190;2022-10-31T07:10:50;162.50;;;47.28;;
39740;SDS011;25426;53.478;10.190;2022-10-31T07:13:26;138.30;;;46.20;;
39740;SDS011;25426;53.478;10.190;2022-10-31T07:16:06;160.20;;;46.65;;
39740;SDS011;25426;53.478;10.190;2022-10-31T07:18:39;144.40;;;44.97;;
39740;SDS011;25426;53.478;10.190;2022-10-31T07:21:10;138.32;;;43.88;;
39740;SDS011;25426;53.478;10.190;2022-10-31T07:23:41;147.20;;;45.50;;
39740;SDS011;25426;53.478;10.190;2022-10-31T07:26:30;191.95;;;50.15;;
39740;SDS011;25426;53.478;10.190;2022-10-31T07:29:02;186.27;;;50.75;;
39740;SDS011;25426;53.478;10.190;2022-10-31T07:31:33;236.18;;;51.58;;
39740;SDS011;25426;53.478;10.190;2022-10-31T07:34:09;219.93;;;53.70;;
39740;SDS011;25426;53.478;10.190;2022-10-31T07:36:59;198.60;;;54.53;;
39740;SDS011;25426;53.478;10.190;2022-10-31T07:39:30;170.73;;;51.00;;
39740;SDS011;25426;53.478;10.190;2022-10-31T07:42:01;210.15;;;54.50;;
39740;SDS011;25426;53.478;10.190;2022-10-31T07:44:33;162.50;;;51.40;;
39740;SDS011;25426;53.478;10.190;2022-10-31T07:47:29;159.75;;;51.17;;
39740;SDS011;25426;53.478;10.190;2022-10-31T07:50:30;133.73;;;48.28;;
39740;SDS011;25426;53.478;10.190;2022-10-31T07:53:24;144.50;;;46.28;;
39740;SDS011;25426;53.478;10.190;2022-10-31T07:56:03;141.45;;;45.35;;
39740;SDS011;25426;53.478;10.190;2022-10-31T07:58:34;111.80;;;41.83;;
39740;SDS011;25426;53.478;10.190;2022-10-31T08:01:05;120.90;;;43.53;;
39740;SDS011;25426;53.478;10.190;2022-10-31T08:03:45;149.75;;;44.67;;
39740;SDS011;25426;53.478;10.190;2022-10-31T08:06:35;133.10;;;43.65;;
39740;SDS011;25426;53.478;10.190;2022-10-31T08:09:15;171.20;;;45.15;;
39740;SDS011;25426;53.478;10.190;2022-10-31T08:11:48;150.50;;;45.22;;
39740;SDS011;25426;53.478;10.190;2022-10-31T08:14:20;111.55;;;43.10;;
39740;SDS011;25426;53.478;10.190;2022-10-31T08:16:54;156.18;;;44.85;;
39740;SDS011;25426;53.478;10.190;2022-10-31T08:19:31;111.50;;;41.75;;
39740;SDS011;25426;53.478;10.190;2022-10-31T08:22:02;156.80;;;43.25;;
39740;SDS011;25426;53.478;10.190;2022-10-31T08:24:33;152.10;;;43.63;;
39740;SDS011;25426;53.478;10.190;2022-10-31T08:27:04;111.40;;;42.20;;
39740;SDS011;25426;53.478;10.190;2022-10-31T08:29:36;187.65;;;42.03;;
39740;SDS011;25426;53.478;10.190;2022-10-31T08:32:08;146.90;;;43.05;;
39740;SDS011;25426;53.478;10.190;2022-10-31T08:34:58;110.80;;;38.67;;
39740;SDS011;25426;53.478;10.190;2022-10-31T08:37:55;111.38;;;37.40;;
39740;SDS011;25426;53.478;10.190;2022-10-31T08:40:30;81.53;;;36.20;;
39740;SDS011;25426;53.478;10.190;2022-10-31T08:43:03;107.78;;;35.63;;
39740;SDS011;25426;53.478;10.190;2022-10-31T08:45:43;77.97;;;32.83;;
39740;SDS011;25426;53.478;10.190;2022-10-31T08:48:24;80.15;;;30.92;;
39740;SDS011;25426;53.478;10.190;2022-10-31T08:50:56;87.47;;;32.88;;
39740;SDS011;25426;53.478;10.190;2022-10-31T08:53:28;85.25;;;33.97;;
39740;SDS011;25426;53.478;10.190;2022-10-31T08:56:19;82.50;;;33.13;;
39740;SDS011;25426;53.478;10.190;2022-10-31T08:58:52;76.45;;;32.17;;
39740;SDS011;25426;53.478;10.190;2022-10-31T09:01:32;71.40;;;31.38;;
39740;SDS011;25426;53.478;10.190;2022-10-31T09:04:03;62.55;;;30.35;;
39740;SDS011;25426;53.478;10.190;2022-10-31T09:06:34;64.75;;;29.20;;
39740;SDS011;25426;53.478;10.190;2022-10-31T09:09:08;63.90;;;30.95;;
39740;SDS011;25426;53.478;10.190;2022-10-31T09:11:39;60.08;;;31.08;;
39740;SDS011;25426;53.478;10.190;2022-10-31T09:14:36;55.72;;;29.38;;
39740;SDS011;25426;53.478;10.190;2022-10-31T09:17:22;56.88;;;29.10;;
39740;SDS011;25426;53.478;10.190;2022-10-31T09:20:20;52.38;;;29.17;;
39740;SDS011;25426;53.478;10.190;2022-10-31T09:22:59;60.20;;;30.23;;
39740;SDS011;25426;53.478;10.190;2022-10-31T09:25:38;56.63;;;29.50;;
39740;SDS011;25426;53.478;10.190;2022-10-31T09:28:34;58.75;;;29.00;;
39740;SDS011;25426;53.478;10.190;2022-10-31T09:31:11;43.83;;;26.25;;
39740;SDS011;25426;53.478;10.190;2022-10-31T09:33:59;44.35;;;24.58;;
39740;SDS011;25426;53.478;10.190;2022-10-31T09:36:39;47.53;;;28.30;;
39740;SDS011;25426;53.478;10.190;2022-10-31T09:39:30;45.45;;;27.92;;
39740;SDS011;25426;53.478;10.190;2022-10-31T09:45:25;40.78;;;25.98;;
39740;SDS011;25426;53.478;10.190;2022-10-31T09:48:44;38.63;;;26.55;;
39740;SDS011;25426;53.478;10.190;2022-10-31T09:51:50;41.15;;;25.38;;
39740;SDS011;25426;53.478;10.190;2022-10-31T09:57:15;37.75;;;23.80;;
39740;SDS011;25426;53.478;10.190;2022-10-31T09:59:53;38.10;;;24.75;;
39740;SDS011;25426;53.478;10.190;2022-10-31T10:02:27;34.80;;;23.48;;
39740;SDS011;25426;53.478;10.190;2022-10-31T10:05:32;42.92;;;27.58;;
39740;SDS011;25426;53.478;10.190;2022-10-31T10:08:19;41.45;;;27.90;;
39740;SDS011;25426;53.478;10.190;2022-10-31T10:11:32;38.60;;;25.77;;
39740;SDS011;25426;53.478;10.190;2022-10-31T10:18:08;39.60;;;25.90;;
39740;SDS011;25426;53.478;10.190;2022-10-31T10:21:18;40.58;;;27.50;;
39740;SDS011;25426;53.478;10.190;2022-10-31T10:33:24;41.55;;;25.92;;
39740;SDS011;25426;53.478;10.190;2022-10-31T10:36:14;41.42;;;27.88;;
39740;SDS011;25426;53.478;10.190;2022-10-31T10:38:52;42.20;;;27.40;;
39740;SDS011;25426;53.478;10.190;2022-10-31T10:41:30;44.95;;;28.60;;
39740;SDS011;25426;53.478;10.190;2022-10-31T10:44:04;40.38;;;27.83;;
39740;SDS011;25426;53.478;10.190;2022-10-31T10:46:43;37.15;;;27.38;;
39740;SDS011;25426;53.478;10.190;2022-10-31T10:49:49;35.85;;;25.25;;
39740;SDS011;25426;53.478;10.190;2022-10-31T10:52:41;32.72;;;25.13;;
39740;SDS011;25426;53.478;10.190;2022-10-31T10:56:04;34.63;;;25.35;;
39740;SDS011;25426;53.478;10.190;2022-10-31T10:58:47;34.20;;;25.27;;
39740;SDS011;25426;53.478;10.190;2022-10-31T11:01:27;38.95;;;26.92;;
39740;SDS011;25426;53.478;10.190;2022-10-31T11:04:35;30.60;;;24.23;;
39740;SDS011;25426;53.478;10.190;2022-10-31T11:07:41;35.78;;;24.63;;
39740;SDS011;25426;53.478;10.190;2022-10-31T11:10:19;33.40;;;26.08;;
39740;SDS011;25426;53.478;10.190;2022-10-31T11:18:40;39.00;;;25.90;;
39740;SDS011;25426;53.478;10.190;2022-10-31T11:21:25;36.38;;;27.02;;
39740;SDS011;25426;53.478;10.190;2022-10-31T11:26:40;37.22;;;25.92;;
39740;SDS011;25426;53.478;10.190;2022-10-31T11:29:20;32.45;;;24.95;;
39740;SDS011;25426;53.478;10.190;2022-10-31T11:31:55;32.58;;;23.63;;
39740;SDS011;25426;53.478;10.190;2022-10-31T11:34:31;30.65;;;24.10;;
39740;SDS011;25426;53.478;10.190;2022-10-31T11:37:11;31.30;;;22.70;;
39740;SDS011;25426;53.478;10.190;2022-10-31T11:39:55;33.05;;;22.42;;
39740;SDS011;25426;53.478;10.190;2022-10-31T11:42:35;33.33;;;23.85;;
39740;SDS011;25426;53.478;10.190;2022-10-31T11:45:19;30.48;;;22.50;;
39740;SDS011;25426;53.478;10.190;2022-10-31T11:48:14;30.13;;;21.00;;
39740;SDS011;25426;53.478;10.190;2022-10-31T11:50:53;28.48;;;24.63;;
39740;SDS011;25426;53.478;10.190;2022-10-31T11:53:30;72.93;;;60.38;;
39740;SDS011;25426;53.478;10.190;2022-10-31T11:56:13;24.30;;;19.67;;
39740;SDS011;25426;53.478;10.190;2022-10-31T11:59:02;27.67;;;21.48;;
39740;SDS011;25426;53.478;10.190;2022-10-31T12:01:39;26.10;;;21.30;;
39740;SDS011;25426;53.478;10.190;2022-10-31T12:04:10;25.42;;;19.85;;
39740;SDS011;25426;53.478;10.190;2022-10-31T12:06:43;30.73;;;24.52;;
39740;SDS011;25426;53.478;10.190;2022-10-31T12:09:23;32.65;;;23.60;;
39740;SDS011;25426;53.478;10.190;2022-10-31T12:15:11;24.38;;;20.70;;
39740;SDS011;25426;53.478;10.190;2022-10-31T12:24:54;30.33;;;26.40;;
39740;SDS011;25426;53.478;10.190;2022-10-31T12:27:51;26.95;;;21.50;;
39740;SDS011;25426;53.478;10.190;2022-10-31T12:34:32;26.50;;;20.75;;
39740;SDS011;25426;53.478;10.190;2022-10-31T12:40:49;26.88;;;19.50;;
39740;SDS011;25426;53.478;10.190;2022-10-31T12:50:18;21.75;;;17.27;;
39740;SDS011;25426;53.478;10.190;2022-10-31T12:53:48;23.15;;;17.75;;
39740;SDS011;25426;53.478;10.190;2022-10-31T12:56:47;27.23;;;20.60;;
39740;SDS011;25426;53.478;10.190;2022-10-31T12:59:53;27.00;;;17.52;;
39740;SDS011;25426;53.478;10.190;2022-10-31T13:02:41;19.08;;;15.57;;
39740;SDS011;25426;53.478;10.190;2022-10-31T13:05:56;21.08;;;16.08;;
39740;SDS011;25426;53.478;10.190;2022-10-31T13:08:40;22.83;;;16.77;;
39740;SDS011;25426;53.478;10.190;2022-10-31T13:11:27;24.08;;;16.90;;
39740;SDS011;25426;53.478;10.190;2022-10-31T13:14:10;21.40;;;17.15;;
39740;SDS011;25426;53.478;10.190;2022-10-31T13:16:48;20.27;;;16.50;;
39740;SDS011;25426;53.478;10.190;2022-10-31T13:19:24;20.35;;;15.77;;
39740;SDS011;25426;53.478;10.190;2022-10-31T13:22:10;24.33;;;16.88;;
39740;SDS011;25426;53.478;10.190;2022-10-31T13:27:42;24.40;;;16.90;;
39740;SDS011;25426;53.478;10.190;2022-10-31T13:30:33;20.60;;;15.07;;
39740;SDS011;25426;53.478;10.190;2022-10-31T13:41:32;22.00;;;15.40;;
39740;SDS011;25426;53.478;10.190;2022-10-31T13:44:19;19.75;;;15.30;;
39740;SDS011;25426;53.478;10.190;2022-10-31T13:46:58;23.08;;;15.65;;
39740;SDS011;25426;53.478;10.190;2022-10-31T13:54:49;22.67;;;17.42;;
39740;SDS011;25426;53.478;10.190;2022-10-31T13:57:44;25.55;;;18.25;;
39740;SDS011;25426;53.478;10.190;2022-10-31T14:00:24;25.10;;;18.98;;
39740;SDS011;25426;53.478;10.190;2022-10-31T14:02:59;26.58;;;18.20;;
39740;SDS011;25426;53.478;10.190;2022-10-31T14:05:34;24.30;;;17.85;;
39740;SDS011;25426;53.478;10.190;2022-10-31T14:08:05;24.15;;;18.50;;
39740;SDS011;25426;53.478;10.190;2022-10-31T14:10:51;26.05;;;19.38;;
39740;SDS011;25426;53.478;10.190;2022-10-31T14:13:37;30.98;;;22.85;;
39740;SDS011;25426;53.478;10.190;2022-10-31T14:16:24;29.48;;;21.70;;
39740;SDS011;25426;53.478;10.190;2022-10-31T14:19:06;28.38;;;20.02;;
39740;SDS011;25426;53.478;10.190;2022-10-31T14:21:47;25.63;;;19.73;;
39740;SDS011;25426;53.478;10.190;2022-10-31T14:26:54;25.30;;;19.77;;
39740;SDS011;25426;53.478;10.190;2022-10-31T14:29:54;31.15;;;23.10;;
39740;SDS011;25426;53.478;10.190;2022-10-31T14:32:25;29.65;;;21.25;;
39740;SDS011;25426;53.478;10.190;2022-10-31T14:34:57;28.42;;;21.10;;
39740;SDS011;25426;53.478;10.190;2022-10-31T14:40:46;29.88;;;21.23;;
39740;SDS011;25426;53.478;10.190;2022-10-31T14:44:07;33.58;;;21.70;;
39740;SDS011;25426;53.478;10.190;2022-10-31T14:47:22;30.20;;;21.63;;
39740;SDS011;25426;53.478;10.190;2022-10-31T14:50:42;31.77;;;22.80;;
39740;SDS011;25426;53.478;10.190;2022-10-31T14:53:29;32.13;;;22.10;;
39740;SDS011;25426;53.478;10.190;2022-10-31T14:56:08;38.40;;;24.67;;
39740;SDS011;25426;53.478;10.190;2022-10-31T14:58:41;35.05;;;23.83;;
39740;SDS011;25426;53.478;10.190;2022-10-31T15:01:38;36.35;;;24.77;;
39740;SDS011;25426;53.478;10.190;2022-10-31T15:07:02;32.88;;;20.75;;
39740;SDS011;25426;53.478;10.190;2022-10-31T15:09:56;31.63;;;19.83;;
39740;SDS011;25426;53.478;10.190;2022-10-31T15:12:36;29.27;;;18.42;;
39740;SDS011;25426;53.478;10.190;2022-10-31T15:15:12;27.83;;;19.38;;
39740;SDS011;25426;53.478;10.190;2022-10-31T15:17:51;28.17;;;20.58;;
39740;SDS011;25426;53.478;10.190;2022-10-31T15:20:28;35.78;;;25.83;;
39740;SDS011;25426;53.478;10.190;2022-10-31T15:26:02;26.30;;;18.10;;
39740;SDS011;25426;53.478;10.190;2022-10-31T15:28:35;29.25;;;17.98;;
39740;SDS011;25426;53.478;10.190;2022-10-31T15:31:13;28.20;;;18.65;;
39740;SDS011;25426;53.478;10.190;2022-10-31T15:33:48;29.48;;;17.83;;
39740;SDS011;25426;53.478;10.190;2022-10-31T15:36:20;27.85;;;20.83;;
39740;SDS011;25426;53.478;10.190;2022-10-31T15:38:55;29.98;;;19.33;;
39740;SDS011;25426;53.478;10.190;2022-10-31T15:41:38;30.42;;;19.70;;
39740;SDS011;25426;53.478;10.190;2022-10-31T15:44:25;26.65;;;18.20;;
39740;SDS011;25426;53.478;10.190;2022-10-31T15:47:00;29.38;;;18.40;;
39740;SDS011;25426;53.478;10.190;2022-10-31T15:49:36;29.65;;;19.98;;
39740;SDS011;25426;53.478;10.190;2022-10-31T15:57:41;33.20;;;19.42;;
39740;SDS011;25426;53.478;10.190;2022-10-31T16:00:40;29.60;;;18.25;;
39740;SDS011;25426;53.478;10.190;2022-10-31T16:05:46;29.65;;;18.58;;
39740;SDS011;25426;53.478;10.190;2022-10-31T16:08:24;31.90;;;20.52;;
39740;SDS011;25426;53.478;10.190;2022-10-31T16:10:59;31.85;;;19.40;;
39740;SDS011;25426;53.478;10.190;2022-10-31T16:16:42;30.77;;;20.42;;
39740;SDS011;25426;53.478;10.190;2022-10-31T16:19:19;30.27;;;20.98;;
39740;SDS011;25426;53.478;10.190;2022-10-31T16:22:08;33.40;;;22.10;;
39740;SDS011;25426;53.478;10.190;2022-10-31T16:24:44;31.42;;;21.42;;
39740;SDS011;25426;53.478;10.190;2022-10-31T16:27:48;30.98;;;20.42;;
39740;SDS011;25426;53.478;10.190;2022-10-31T16:30:44;34.85;;;21.48;;
39740;SDS011;25426;53.478;10.190;2022-10-31T16:36:29;32.20;;;19.83;;
39740;SDS011;25426;53.478;10.190;2022-10-31T16:39:06;29.92;;;20.52;;
39740;SDS011;25426;53.478;10.190;2022-10-31T16:41:38;33.58;;;20.05;;
39740;SDS011;25426;53.478;10.190;2022-10-31T16:44:29;35.45;;;21.35;;
39740;SDS011;25426;53.478;10.190;2022-10-31T16:47:12;31.85;;;21.42;;
39740;SDS011;25426;53.478;10.190;2022-10-31T16:49:46;30.27;;;21.00;;
39740;SDS011;25426;53.478;10.190;2022-10-31T16:52:19;37.13;;;21.05;;
39740;SDS011;25426;53.478;10.190;2022-10-31T16:54:51;33.72;;;21.13;;
39740;SDS011;25426;53.478;10.190;2022-10-31T16:57:24;38.28;;;22.95;;
39740;SDS011;25426;53.478;10.190;2022-10-31T16:59:57;38.42;;;22.63;;
39740;SDS011;25426;53.478;10.190;2022-10-31T17:02:28;45.13;;;23.42;;
39740;SDS011;25426;53.478;10.190;2022-10-31T17:04:59;42.35;;;25.10;;
39740;SDS011;25426;53.478;10.190;2022-10-31T17:07:30;37.85;;;23.27;;
39740;SDS011;25426;53.478;10.190;2022-10-31T17:10:01;38.38;;;22.00;;
39740;SDS011;25426;53.478;10.190;2022-10-31T17:12:32;43.97;;;23.75;;
39740;SDS011;25426;53.478;10.190;2022-10-31T17:15:05;39.25;;;23.40;;
39740;SDS011;25426;53.478;10.190;2022-10-31T17:17:58;40.72;;;23.55;;
39740;SDS011;25426;53.478;10.190;2022-10-31T17:20:29;33.47;;;22.27;;
39740;SDS011;25426;53.478;10.190;2022-10-31T17:23:01;34.47;;;21.52;;